Thursday, January 17, 2019, 5:58 AM EST
Back to Local

KGNR, Greenville

Location: Greenville, ME, United States Lat: 45.467
Local Time: 5:58 AM EST (10:58 GMT) Lon: -69.583
Time Zone: US/Eastern Elev: 1400 ft

Show me the last for .
Show Decoded

2019-01-17 04:56 METAR KGNR 170956Z AUTO 30012G22KT 270V330 M20/M26 A3007 RMK AO1 PK WND
                 31026/0901 SLP217 T12001256 =
2019-01-17 03:56 METAR KGNR 170856Z AUTO 31015G23KT M19/M25 A3005 RMK AO1 SLP208 T11941250 51023
                 =
2019-01-17 02:56 METAR KGNR 170756Z AUTO 31018G26KT M19/M24 A3003 RMK AO1 PK WND 32029/0713
                 SLP201 T11941244 =
2019-01-17 01:56 METAR KGNR 170656Z AUTO 31015G24KT M19/M24 A3002 RMK AO1 PK WND 32026/0628
                 SLP196 T11891244 =
2019-01-17 00:56 METAR KGNR 170556Z AUTO 31016G25KT M18/M24 A2998 RMK AO1 PK WND 30031/0527
                 SLP184 T11781239 11044 21178 51029 =
2019-01-16 23:56 METAR KGNR 170456Z AUTO 30012G19KT M17/M22 A2996 RMK AO1 PK WND 31027/0428
                 SLP176 T11671222 410331167 =
2019-01-16 22:56 METAR KGNR 170356Z AUTO 30016G22KT M16/M22 A2993 RMK AO1 PK WND 31028/0327
                 SLP167 T11611217 =
2019-01-16 21:56 METAR KGNR 170256Z AUTO 30014G26KT M14/M19 A2989 RMK AO1 PK WND 32030/0221
                 PRESRR SLP153 T11391194 51050 =
2019-01-16 20:56 METAR KGNR 170156Z AUTO 31021G29KT M11/M17 A2985 RMK AO1 PK WND 31031/0145
                 SLP138 T11111172 =
2019-01-16 19:56 METAR KGNR 170056Z AUTO 31018G28KT M07/M13 A2979 RMK AO1 PK WND 31028/0054
                 SLP113 T10721128 =
2019-01-16 18:56 METAR KGNR 162356Z AUTO 28009G20KT 250V340 M04/M12 A2974 RMK AO1 SLP096 P0001
                 60002 T10441117 11033 21044 53027 =
2019-01-16 17:56 METAR KGNR 162256Z AUTO VRB06KT M03/M08 A2970 RMK AO1 SLP079 T10331078 =
2019-01-16 16:56 METAR KGNR 162156Z AUTO 20004KT M04/M07 A2967 RMK AO1 SLP071 T10391067 =
2019-01-16 15:56 METAR KGNR 162056Z AUTO 17003KT M03/M07 A2966 RMK AO1 SLP067 P0001 60001
                 T10331067 53002 =
2019-01-16 14:56 METAR KGNR 161956Z AUTO 00000KT M03/M07 A2966 RMK AO1 SLP067 T10331072 =
2019-01-16 13:56 METAR KGNR 161856Z AUTO VRB06KT M03/M07 A2965 RMK AO1 SLP064 T10331072 =
2019-01-16 12:56 METAR KGNR 161756Z AUTO VRB04KT M03/M07 A2965 RMK AO1 SLP065 T10331072 11033
                 21083 56025 =
2019-01-16 11:56 METAR KGNR 161656Z AUTO VRB04KT M04/M08 A2967 RMK AO1 SLP071 T10441078 =
2019-01-16 10:56 METAR KGNR 161556Z AUTO 19008KT M05/M08 A2970 RMK AO1 SLP084 T10501083 =
2019-01-16 09:56 METAR KGNR 161456Z AUTO 11003KT M07/M09 A2973 RMK AO1 SLP095 T10671094 56012 =
2019-01-16 08:56 METAR KGNR 161356Z AUTO 13006KT M07/M10 A2973 RMK AO1 SLP096 T10721100 =
2019-01-16 07:56 METAR KGNR 161256Z AUTO 15008KT M08/M11 A2975 RMK AO1 SLP100 T10781106 =
2019-01-16 06:56 METAR KGNR 161156Z AUTO 15009KT M08/M11 A2977 RMK AO1 SLP107 T10781106 11078
                 21089 58017 =

Support USWX by starting your Amazon purchase here.